Darien, GA (31305)

1:42 AM EDT on August 05, 2015 (GMT -0400)
Country Walk | | Change Station
CLOSE
Current Station
Personal Weather Station
Location: Brunswick, GA
Elevation: 30 ft
Nearby Weather Stations

Elev 30 ft 31.27 °N, 81.48 °W | Updated 4 minutes ago

Clear
Clear
73.9 °F
Feels Like 71 °F
N
0.0
Wind Variable Wind from WSW
Gusts 0.0 mph

Today
High -- | Low -- °F
--% Chance of Precip.
Yesterday
High -- | Low -- °F
Precip. -- in
6:44 AM 8:18 PM
Waning Gibbous, 70% visible
Pressure 30.06 in
Visibility 10.0 miles
Clouds Clear
Heat Index 71 °F
Dew Point 72 °F
Humidity 95%
Rainfall 0.00 in
Snow Depth Not available.
UV 0.0 out of 12
Pollen 4.00 out of 12
Air Quality Not available.
Flu Activity Not available.
METAR KBQK 050535Z AUTO 00000KT 10SM CLR 23/22 A3006 RMK AO1

More Conditions Fewer Conditions

Pressure 30.06 in
Visibility 10.0 miles
Clouds Clear
Heat Index 71 °F
Dew Point 72 °F
Humidity 95%
Rainfall 0.00 in
Snow Depth Not available.
UV 0.0 out of 12
Pollen 4.00 out of 12
Air Quality Not available.
Flu Activity Not available.
METAR KBQK 050535Z AUTO 00000KT 10SM CLR 23/22 A3006 RMK AO1

More Conditions Fewer Conditions

10-Day Weather Forecast

×

Almanac

Astronomy

Aug. 05, 2015 Rise Set
Actual Time
Civil Twilight
Nautical Twilight
Astronomical Twilight
Moon
Length of Visible Light
Length of Day
Tomorrow will be .
, % of the Moon is Illuminated

Today's Extremes

State Highs State Lows

Community

WunderPhotos

Upload Photos

1,844,098 photos uploaded!

WunderBlogs® & News

Nearby

Air Quality

  Air Quality AQ Index Pollutant
Not available.

Snow Depth

Station Depth Elevation

Earthquake Activity

City Distance Mag. Time & Date
Minimum magnitude displayed is 2.5.

Coastal Water Temperatures

Place Temperature

Stations

Nearby Weather Stations

Station Location Temp. Windchill Dew Point Humidity Wind Precip. Elev Updated Type